Time;durP1;ratioP1;P1;durP2;ratioP2;P2;SDS_P1;SDS_P2;PMS_P1;PMS_P2;Temp;Humidity;BMP_temperature;BMP_pressure;BME280_temperature;BME280_humidity;BME280_pressure;Samples;Min_cycle;Max_cycle;Signal;HPM_P1;HPM_P2
2021/09/27 09:54:47;;;;;;;2.17;1.88;;;;;;;;;;5028160;27;1611182;-75
2021/09/27 09:57:22;;;;;;;3.75;2.38;;;;;;;;;;5082465;28;20084;-80
2021/09/27 10:00:17;;;;;;;3.50;2.53;;;;;;;;;;5084888;28;20135;-79
2021/09/27 10:02:43;;;;;;;5.53;2.80;;;;;;;;;;5084392;28;20501;-80
2021/09/27 10:05:19;;;;;;;5.55;3.03;;;;;;;;;;4961401;28;54923;-79
2021/09/27 10:07:46;;;;;;;5.82;3.00;;;;;;;;;;5068606;28;20036;-78
2021/09/27 10:10:25;;;;;;;3.40;2.90;;;;;;;;;;5064178;28;20028;-80
2021/09/27 10:12:50;;;;;;;5.78;3.70;;;;;;;;;;5066534;28;20044;-79
2021/09/27 10:15:34;;;;;;;3.55;3.22;;;;;;;;;;5060446;28;20512;-80
2021/09/27 10:18:21;;;;;;;4.20;2.85;;;;;;;;;;5086377;28;20036;-80
2021/09/27 10:21:21;;;;;;;4.43;3.03;;;;;;;;;;5003591;28;26048;-79
2021/09/27 10:23:49;;;;;;;5.22;3.40;;;;;;;;;;4971431;28;105376;-79
2021/09/27 10:26:20;;;;;;;5.47;3.00;;;;;;;;;;5104689;28;20036;-81
2021/09/27 10:28:49;;;;;;;6.15;2.70;;;;;;;;;;5105058;28;20043;-79
2021/09/27 10:31:15;;;;;;;3.70;3.28;;;;;;;;;;4895999;28;89601;-77
2021/09/27 10:33:46;;;;;;;5.72;2.53;;;;;;;;;;4951793;28;133266;-83
2021/09/27 10:36:18;;;;;;;3.75;2.75;;;;;;;;;;4972911;28;71480;-82
2021/09/27 10:38:49;;;;;;;3.75;2.53;;;;;;;;;;5079928;28;20051;-81
2021/09/27 10:41:32;;;;;;;3.97;2.72;;;;;;;;;;5106510;28;20047;-81
2021/09/27 10:44:13;;;;;;;5.10;3.47;;;;;;;;;;5106474;28;20119;-80
2021/09/27 10:46:41;;;;;;;4.85;2.65;;;;;;;;;;5106225;28;20416;-80
2021/09/27 10:49:14;;;;;;;4.07;2.72;;;;;;;;;;5097900;28;20423;-81
2021/09/27 10:51:40;;;;;;;4.20;3.28;;;;;;;;;;5085320;28;20030;-78
2021/09/27 10:54:14;;;;;;;6.38;4.00;;;;;;;;;;5083089;28;20050;-78
2021/09/27 10:56:51;;;;;;;4.85;3.17;;;;;;;;;;5084116;28;20449;-80
2021/09/27 10:59:33;;;;;;;3.58;2.60;;;;;;;;;;5084889;28;20130;-78
2021/09/27 11:02:15;;;;;;;6.47;3.13;;;;;;;;;;5083929;28;20032;-80
2021/09/27 11:04:44;;;;;;;5.22;2.92;;;;;;;;;;5079650;28;20040;-79
2021/09/27 11:07:21;;;;;;;;;;;;;;;;;;5072925;28;20037;-81
2021/09/27 11:09:47;;;;;;;5.10;3.38;;;;;;;;;;5085231;28;19916;-83
2021/09/27 11:12:25;;;;;;;3.80;2.83;;;;;;;;;;5090888;28;20028;-81
2021/09/27 11:14:56;;;;;;;5.07;2.90;;;;;;;;;;5091433;28;20097;-81
2021/09/27 11:17:31;;;;;;;3.80;2.88;;;;;;;;;;5089556;28;20042;-79
2021/09/27 11:20:28;;;;;;;4.40;3.42;;;;;;;;;;5092589;28;20085;-81
2021/09/27 11:22:54;;;;;;;3.63;3.00;;;;;;;;;;5090055;28;20044;-81
2021/09/27 11:25:22;;;;;;;4.65;3.08;;;;;;;;;;5088662;28;20050;-83
2021/09/27 11:28:25;;;;;;;4.35;3.45;;;;;;;;;;5096546;28;20059;-81
2021/09/27 11:31:16;;;;;;;7.85;3.60;;;;;;;;;;5089777;28;20039;-79
2021/09/27 11:33:42;;;;;;;5.10;3.83;;;;;;;;;;5091095;28;20175;-79
2021/09/27 11:36:49;;;;;;;6.80;3.40;;;;;;;;;;5089250;28;20126;-81
2021/09/27 11:39:16;;;;;;;11.10;4.00;;;;;;;;;;5091156;28;20412;-83
2021/09/27 11:42:19;;;;;;;7.05;3.67;;;;;;;;;;5090501;28;20055;-82
2021/09/27 11:45:26;;;;;;;7.35;3.90;;;;;;;;;;5074203;28;20063;-81
2021/09/27 11:47:59;;;;;;;7.43;3.55;;;;;;;;;;5085464;28;20054;-80
2021/09/27 11:50:29;;;;;;;7.70;4.05;;;;;;;;;;5071131;28;20033;-81
2021/09/27 11:53:27;;;;;;;8.77;3.65;;;;;;;;;;5069560;28;20463;-81
2021/09/27 11:56:06;;;;;;;5.80;3.78;;;;;;;;;;5070623;28;20174;-78
2021/09/27 11:58:56;;;;;;;8.38;3.25;;;;;;;;;;5070819;28;20052;-79
2021/09/27 12:01:36;;;;;;;6.05;3.80;;;;;;;;;;5070204;28;20681;-80
2021/09/27 12:04:36;;;;;;;4.80;3.17;;;;;;;;;;5086371;28;20032;-80
2021/09/27 12:07:04;;;;;;;5.65;2.88;;;;;;;;;;5070380;28;20538;-80
2021/09/27 12:09:54;;;;;;;6.57;3.88;;;;;;;;;;5069292;28;20147;-84
2021/09/27 12:12:40;;;;;;;7.88;3.90;;;;;;;;;;5065204;28;20033;-79
2021/09/27 12:15:07;;;;;;;9.45;4.13;;;;;;;;;;5085408;28;20032;-80
2021/09/27 12:17:36;;;;;;;5.30;3.67;;;;;;;;;;5068033;28;20060;-77
2021/09/27 12:20:15;;;;;;;6.60;3.95;;;;;;;;;;5070784;28;20064;-83
2021/09/27 12:23:00;;;;;;;6.03;4.00;;;;;;;;;;5070272;28;20501;-80
2021/09/27 12:25:36;;;;;;;4.88;3.88;;;;;;;;;;5070120;28;20068;-81
2021/09/27 12:28:11;;;;;;;6.47;3.85;;;;;;;;;;5068956;28;20028;-79
2021/09/27 12:30:54;;;;;;;5.88;3.90;;;;;;;;;;5067125;28;20230;-80
2021/09/27 12:33:26;;;;;;;7.90;3.97;;;;;;;;;;5069413;28;20075;-81
2021/09/27 12:36:08;;;;;;;5.07;4.35;;;;;;;;;;5067069;28;20193;-78
2021/09/27 12:38:34;;;;;;;6.35;5.68;;;;;;;;;;5064715;28;20635;-78
2021/09/27 12:41:06;;;;;;;6.30;5.25;;;;;;;;;;5081768;28;20566;-77
2021/09/27 12:43:32;;;;;;;4.72;3.63;;;;;;;;;;5069533;28;20036;-81
2021/09/27 12:46:27;;;;;;;4.95;3.67;;;;;;;;;;5070693;28;20102;-80
2021/09/27 12:48:59;;;;;;;4.95;3.50;;;;;;;;;;5079523;28;20044;-79
2021/09/27 12:51:35;;;;;;;3.67;3.10;;;;;;;;;;5092182;28;20036;-81
2021/09/27 12:54:26;;;;;;;4.78;3.92;;;;;;;;;;5090951;28;20429;-80
2021/09/27 12:56:54;;;;;;;5.13;3.92;;;;;;;;;;5084267;28;20040;-84
2021/09/27 12:59:24;;;;;;;3.78;3.38;;;;;;;;;;5090289;28;20035;-79
2021/09/27 13:01:57;;;;;;;5.65;3.20;;;;;;;;;;5090456;28;20032;-78
2021/09/27 13:04:29;;;;;;;6.60;3.78;;;;;;;;;;5089349;28;20082;-78
2021/09/27 13:07:00;;;;;;;5.75;3.03;;;;;;;;;;5088152;28;20043;-78
2021/09/27 13:09:29;;;;;;;5.15;3.63;;;;;;;;;;5088444;28;20061;-81
2021/09/27 13:12:09;;;;;;;6.72;3.40;;;;;;;;;;5089435;28;20504;-78
2021/09/27 13:14:42;;;;;;;7.53;3.10;;;;;;;;;;5087898;28;20042;-79
2021/09/27 13:17:16;;;;;;;4.13;3.22;;;;;;;;;;5087959;28;20039;-80
2021/09/27 13:19:43;;;;;;;10.40;3.92;;;;;;;;;;5090211;28;20042;-78
2021/09/27 13:22:38;;;;;;;6.22;3.72;;;;;;;;;;5088212;28;20032;-79
2021/09/27 13:25:24;;;;;;;7.25;3.83;;;;;;;;;;5086247;28;20101;-78
2021/09/27 13:27:54;;;;;;;6.32;3.92;;;;;;;;;;5089683;28;20051;-81
2021/09/27 13:30:32;;;;;;;7.28;3.63;;;;;;;;;;5088611;28;20157;-79
2021/09/27 13:33:00;;;;;;;7.10;4.10;;;;;;;;;;5089099;28;20493;-79
2021/09/27 13:35:33;;;;;;;4.85;3.15;;;;;;;;;;5087749;28;20043;-80
2021/09/27 13:38:03;;;;;;;7.70;4.40;;;;;;;;;;5087903;28;20031;-78
2021/09/27 13:40:45;;;;;;;4.78;3.33;;;;;;;;;;5089621;28;20024;-79
2021/09/27 13:43:50;;;;;;;11.18;4.57;;;;;;;;;;5089189;28;20385;-79
2021/09/27 13:46:25;;;;;;;5.82;3.78;;;;;;;;;;5076279;28;20580;-79
2021/09/27 13:48:51;;;;;;;6.28;3.67;;;;;;;;;;5098817;28;20059;-78
2021/09/27 13:51:19;;;;;;;3.65;2.72;;;;;;;;;;5068660;28;20067;-78
2021/09/27 13:53:49;;;;;;;7.97;4.18;;;;;;;;;;5068233;28;20063;-78
2021/09/27 13:56:22;;;;;;;8.98;3.25;;;;;;;;;;5067225;28;20040;-79
2021/09/27 13:58:48;;;;;;;6.28;4.63;;;;;;;;;;5069060;28;20441;-79
2021/09/27 14:01:16;;;;;;;7.32;3.85;;;;;;;;;;5066757;28;20025;-79
2021/09/27 14:03:43;;;;;;;9.60;4.03;;;;;;;;;;5067864;28;20036;-78
2021/09/27 14:06:08;;;;;;;5.80;3.88;;;;;;;;;;5067396;28;20043;-81
2021/09/27 14:08:33;;;;;;;8.75;4.55;;;;;;;;;;5069263;28;20028;-80
2021/09/27 14:10:59;;;;;;;3.70;2.60;;;;;;;;;;5069174;28;20586;-79
2021/09/27 14:13:29;;;;;;;7.80;3.85;;;;;;;;;;5068876;28;20040;-79
2021/09/27 14:15:57;;;;;;;6.93;4.20;;;;;;;;;;5068144;28;20407;-80
2021/09/27 14:18:23;;;;;;;7.13;3.90;;;;;;;;;;5068198;28;20271;-77
2021/09/27 14:20:49;;;;;;;6.40;3.75;;;;;;;;;;5068582;28;20028;-80
2021/09/27 14:23:15;;;;;;;7.07;4.97;;;;;;;;;;5068421;28;20548;-80
2021/09/27 14:25:41;;;;;;;7.07;3.85;;;;;;;;;;5068696;28;20086;-80
2021/09/27 14:28:08;;;;;;;5.13;3.80;;;;;;;;;;5067715;28;20033;-80
2021/09/27 14:30:33;;;;;;;9.70;3.97;;;;;;;;;;5069290;28;20037;-78
2021/09/27 14:32:59;;;;;;;6.38;4.13;;;;;;;;;;5069893;28;20047;-82
2021/09/27 14:35:25;;;;;;;5.68;3.90;;;;;;;;;;5069446;28;20038;-79
2021/09/27 14:37:51;;;;;;;10.43;4.45;;;;;;;;;;5069958;28;20028;-82
2021/09/27 14:40:19;;;;;;;6.68;4.47;;;;;;;;;;5086419;28;20117;-82
2021/09/27 14:42:44;;;;;;;10.80;4.63;;;;;;;;;;5073001;28;20028;-78
2021/09/27 14:45:11;;;;;;;7.30;4.25;;;;;;;;;;5072235;28;20115;-81
2021/09/27 14:47:38;;;;;;;4.88;3.50;;;;;;;;;;5071371;28;20064;-82
2021/09/27 14:50:06;;;;;;;5.88;4.07;;;;;;;;;;5105200;28;20039;-80
2021/09/27 14:52:31;;;;;;;5.70;3.20;;;;;;;;;;5091732;28;20044;-81
2021/09/27 14:54:57;;;;;;;7.45;4.75;;;;;;;;;;5093212;28;20527;-82
2021/09/27 14:57:22;;;;;;;8.85;5.68;;;;;;;;;;5092292;28;20123;-79
2021/09/27 14:59:47;;;;;;;10.98;5.65;;;;;;;;;;5093385;28;20024;-81
2021/09/27 15:02:13;;;;;;;6.28;4.10;;;;;;;;;;5090436;28;20077;-79
2021/09/27 15:04:38;;;;;;;6.32;4.05;;;;;;;;;;5091651;28;20031;-81
2021/09/27 15:07:04;;;;;;;6.00;4.03;;;;;;;;;;5091863;28;20040;-79
2021/09/27 15:09:29;;;;;;;17.10;3.75;;;;;;;;;;5091559;28;20117;-78
2021/09/27 15:11:55;;;;;;;9.45;4.45;;;;;;;;;;5092537;28;20032;-76
2021/09/27 15:14:21;;;;;;;6.13;4.45;;;;;;;;;;5092047;28;20040;-74
2021/09/27 15:16:46;;;;;;;11.80;4.38;;;;;;;;;;5092981;28;20042;-76
2021/09/27 15:19:12;;;;;;;7.32;4.07;;;;;;;;;;5092937;28;20040;-74
2021/09/27 15:21:40;;;;;;;7.50;3.60;;;;;;;;;;5091551;28;20027;-76
2021/09/27 15:24:06;;;;;;;7.03;4.60;;;;;;;;;;5091008;28;20032;-74
2021/09/27 15:26:33;;;;;;;7.07;5.63;;;;;;;;;;5092047;28;20036;-77
2021/09/27 15:29:03;;;;;;;6.10;4.60;;;;;;;;;;5092343;28;20484;-78
2021/09/27 15:31:32;;;;;;;6.97;5.00;;;;;;;;;;5090416;28;20118;-77
2021/09/27 15:34:00;;;;;;;6.53;4.47;;;;;;;;;;5090145;28;20036;-78
2021/09/27 15:36:26;;;;;;;6.30;3.97;;;;;;;;;;5069531;28;20044;-77
2021/09/27 15:38:54;;;;;;;8.43;5.00;;;;;;;;;;5090432;28;20085;-79
2021/09/27 15:41:20;;;;;;;7.32;5.07;;;;;;;;;;5092011;28;20113;-77
2021/09/27 15:43:49;;;;;;;9.63;5.10;;;;;;;;;;5089501;28;20028;-80
2021/09/27 15:46:15;;;;;;;7.57;5.40;;;;;;;;;;5090183;28;20623;-81
2021/09/27 15:48:41;;;;;;;14.02;5.38;;;;;;;;;;5023069;28;20055;-83
2021/09/27 15:51:09;;;;;;;10.48;5.82;;;;;;;;;;5073682;28;20048;-81
2021/09/27 15:53:34;;;;;;;11.50;6.07;;;;;;;;;;5067729;28;20124;-80
2021/09/27 15:56:00;;;;;;;11.48;6.00;;;;;;;;;;5072705;28;20131;-82
2021/09/27 15:58:32;;;;;;;9.95;6.63;;;;;;;;;;5071259;28;20117;-81
2021/09/27 16:00:58;;;;;;;15.32;6.65;;;;;;;;;;5072133;28;20090;-81
2021/09/27 16:03:23;;;;;;;8.65;6.95;;;;;;;;;;5071432;28;20159;-81
2021/09/27 16:05:49;;;;;;;10.50;6.20;;;;;;;;;;5071958;28;20102;-83
2021/09/27 16:08:14;;;;;;;11.00;6.82;;;;;;;;;;5071544;28;20040;-81
2021/09/27 16:10:40;;;;;;;11.48;7.30;;;;;;;;;;5070219;28;20033;-80
2021/09/27 16:13:06;;;;;;;11.27;6.72;;;;;;;;;;5071936;28;20040;-82
2021/09/27 16:15:35;;;;;;;13.57;6.75;;;;;;;;;;5071670;28;20044;-82
2021/09/27 16:18:02;;;;;;;12.13;9.50;;;;;;;;;;5070672;28;20493;-84
2021/09/27 16:20:31;;;;;;;9.50;6.28;;;;;;;;;;5071606;28;20496;-83
2021/09/27 16:22:57;;;;;;;10.00;6.88;;;;;;;;;;5071573;28;20107;-83
2021/09/27 16:25:22;;;;;;;8.95;6.20;;;;;;;;;;5072659;28;20115;-81
2021/09/27 16:27:48;;;;;;;11.02;6.60;;;;;;;;;;5073737;28;20070;-82
2021/09/27 16:30:15;;;;;;;10.40;6.88;;;;;;;;;;5073303;28;20504;-81
2021/09/27 16:32:40;;;;;;;9.30;6.20;;;;;;;;;;5070357;28;20546;-80
2021/09/27 16:35:06;;;;;;;10.90;6.53;;;;;;;;;;5070313;28;20032;-81
2021/09/27 16:37:32;;;;;;;9.55;7.50;;;;;;;;;;5067653;28;20947;-82
2021/09/27 16:39:57;;;;;;;9.15;6.53;;;;;;;;;;5071005;28;20035;-82
2021/09/27 16:42:23;;;;;;;11.10;8.07;;;;;;;;;;5071341;28;20095;-82
2021/09/27 16:44:49;;;;;;;8.70;6.63;;;;;;;;;;5070314;28;20047;-82
2021/09/27 16:47:17;;;;;;;8.43;6.15;;;;;;;;;;5071656;28;20213;-84
2021/09/27 16:49:44;;;;;;;13.15;6.75;;;;;;;;;;5085388;28;20031;-83
2021/09/27 16:52:11;;;;;;;9.73;6.43;;;;;;;;;;5091265;28;20062;-81
2021/09/27 16:54:36;;;;;;;9.98;7.28;;;;;;;;;;5091496;28;20436;-83
2021/09/27 16:57:03;;;;;;;8.27;5.93;;;;;;;;;;5091444;28;20038;-82
2021/09/27 16:59:29;;;;;;;10.43;6.57;;;;;;;;;;5090152;28;20036;-83
2021/09/27 17:01:54;;;;;;;11.68;6.93;;;;;;;;;;5090990;28;20381;-81
2021/09/27 17:04:20;;;;;;;12.05;7.57;;;;;;;;;;5091069;28;20028;-82
2021/09/27 17:06:45;;;;;;;11.40;7.00;;;;;;;;;;5089312;28;20036;-82
2021/09/27 17:09:12;;;;;;;12.90;7.20;;;;;;;;;;5091446;28;20512;-85
2021/09/27 17:11:39;;;;;;;12.35;7.78;;;;;;;;;;5091129;28;20031;-82
2021/09/27 17:19:27;;;;;;;12.65;7.28;;;;;;;;;;5089731;28;20486;-82
2021/09/27 17:21:55;;;;;;;12.18;7.15;;;;;;;;;;5090390;28;20032;-83
2021/09/27 17:24:22;;;;;;;16.63;8.50;;;;;;;;;;5089018;28;20113;-81
2021/09/27 17:26:49;;;;;;;15.73;8.25;;;;;;;;;;5089216;28;20089;-83
2021/09/27 17:29:17;;;;;;;16.85;8.48;;;;;;;;;;5089621;28;20118;-82
2021/09/27 17:31:45;;;;;;;15.32;8.05;;;;;;;;;;5089700;28;20039;-83
2021/09/27 17:34:11;;;;;;;13.63;7.53;;;;;;;;;;5089753;28;20062;-80
2021/09/27 17:36:38;;;;;;;14.48;7.85;;;;;;;;;;5088991;28;20055;-83
2021/09/27 17:39:08;;;;;;;11.73;6.95;;;;;;;;;;5088762;28;20086;-83
2021/09/27 17:41:35;;;;;;;13.57;6.75;;;;;;;;;;5088907;28;20074;-80
2021/09/27 17:44:01;;;;;;;17.27;8.10;;;;;;;;;;5089175;28;20503;-83
2021/09/27 17:46:27;;;;;;;13.98;7.82;;;;;;;;;;5088750;28;20074;-86
2021/09/27 17:48:53;;;;;;;10.43;6.85;;;;;;;;;;5089421;28;20089;-83
2021/09/27 17:51:20;;;;;;;11.05;7.05;;;;;;;;;;5089684;28;20262;-85
2021/09/27 17:53:46;;;;;;;18.48;8.98;;;;;;;;;;5089623;28;20135;-83
2021/09/27 17:56:11;;;;;;;21.63;8.35;;;;;;;;;;5089620;28;20083;-81
2021/09/27 17:58:37;;;;;;;17.20;8.25;;;;;;;;;;5089432;28;20504;-81
2021/09/27 18:01:03;;;;;;;13.40;7.90;;;;;;;;;;5089740;28;20058;-81
2021/09/27 18:03:32;;;;;;;13.30;7.80;;;;;;;;;;5089702;28;20035;-82
2021/09/27 18:05:58;;;;;;;12.73;6.88;;;;;;;;;;5088244;28;20059;-82
2021/09/27 18:08:24;;;;;;;12.95;7.65;;;;;;;;;;5089597;28;20056;-85
2021/09/27 18:10:52;;;;;;;12.70;8.43;;;;;;;;;;5089157;28;20781;-83
2021/09/27 18:13:18;;;;;;;11.27;6.63;;;;;;;;;;5089095;28;20036;-81
2021/09/27 18:15:44;;;;;;;13.32;8.07;;;;;;;;;;5092306;28;20031;-83
2021/09/27 18:18:10;;;;;;;14.77;8.95;;;;;;;;;;5093649;28;20503;-82
2021/09/27 18:20:35;;;;;;;13.43;7.72;;;;;;;;;;5094421;28;20475;-83
2021/09/27 18:23:02;;;;;;;14.02;8.52;;;;;;;;;;5093518;28;20114;-82
2021/09/27 18:25:29;;;;;;;13.55;8.07;;;;;;;;;;5093942;28;20496;-81
2021/09/27 18:27:54;;;;;;;13.27;7.85;;;;;;;;;;5093999;28;20032;-81
2021/09/27 18:30:31;;;;;;;13.98;8.15;;;;;;;;;;5093359;28;20384;-81
2021/09/27 18:33:00;;;;;;;13.93;8.35;;;;;;;;;;5093768;28;20556;-82
2021/09/27 18:35:29;;;;;;;19.65;8.48;;;;;;;;;;5093390;28;20036;-82
2021/09/27 18:37:56;;;;;;;15.40;8.90;;;;;;;;;;5092228;28;20478;-81
2021/09/27 18:40:21;;;;;;;14.65;8.00;;;;;;;;;;5092678;28;20552;-80
2021/09/27 18:42:47;;;;;;;13.25;8.05;;;;;;;;;;5092631;28;20036;-82
2021/09/27 18:45:14;;;;;;;14.18;8.23;;;;;;;;;;5090726;28;20143;-80
2021/09/27 18:47:41;;;;;;;17.25;10.43;;;;;;;;;;5091547;28;20032;-82
2021/09/27 18:50:08;;;;;;;16.80;8.45;;;;;;;;;;5091534;28;20520;-79
2021/09/27 18:52:34;;;;;;;17.85;8.48;;;;;;;;;;5108690;28;20039;-81
2021/09/27 18:55:00;;;;;;;19.05;8.90;;;;;;;;;;5111027;28;20074;-82
2021/09/27 18:57:25;;;;;;;15.75;8.15;;;;;;;;;;5093370;28;20524;-83
2021/09/27 18:59:50;;;;;;;16.63;8.75;;;;;;;;;;5093519;28;20056;-82
2021/09/27 19:02:16;;;;;;;14.20;10.23;;;;;;;;;;5091582;28;20032;-81
2021/09/27 19:04:41;;;;;;;17.48;8.02;;;;;;;;;;5093483;28;20047;-81
2021/09/27 19:07:08;;;;;;;19.52;9.80;;;;;;;;;;5094079;28;20059;-83
2021/09/27 19:09:33;;;;;;;13.95;8.65;;;;;;;;;;5093751;28;20122;-83
2021/09/27 19:11:58;;;;;;;16.27;8.48;;;;;;;;;;5093558;28;20114;-85
2021/09/27 19:14:24;;;;;;;15.05;7.88;;;;;;;;;;5093517;28;20059;-84
2021/09/27 19:16:49;;;;;;;20.98;11.60;;;;;;;;;;5092438;28;20054;-83
2021/09/27 19:19:15;;;;;;;11.88;7.85;;;;;;;;;;5093971;28;20090;-81
2021/09/27 19:21:40;;;;;;;18.67;9.02;;;;;;;;;;5093700;28;20504;-83
2021/09/27 19:24:07;;;;;;;14.05;7.45;;;;;;;;;;5093732;28;20032;-82
2021/09/27 19:26:37;;;;;;;13.45;6.85;;;;;;;;;;5092805;28;20032;-80
2021/09/27 19:29:09;;;;;;;15.07;7.20;;;;;;;;;;5092447;28;20042;-82
2021/09/27 19:31:36;;;;;;;12.70;7.55;;;;;;;;;;5091962;28;20055;-81
2021/09/27 19:34:01;;;;;;;24.80;7.43;;;;;;;;;;5092175;28;20090;-82
2021/09/27 19:36:26;;;;;;;14.20;7.47;;;;;;;;;;5094023;28;20426;-81
2021/09/27 19:38:52;;;;;;;17.27;7.20;;;;;;;;;;5093251;28;20050;-81
2021/09/27 19:41:18;;;;;;;15.35;9.10;;;;;;;;;;5091916;28;20028;-83
2021/09/27 19:43:44;;;;;;;22.35;10.20;;;;;;;;;;5093198;28;20127;-82
2021/09/27 19:46:10;;;;;;;17.90;8.07;;;;;;;;;;5093156;28;20032;-81
2021/09/27 19:48:35;;;;;;;14.02;8.05;;;;;;;;;;5093700;28;20035;-82
2021/09/27 19:51:02;;;;;;;15.75;9.20;;;;;;;;;;5093559;28;20456;-82
2021/09/27 19:53:27;;;;;;;13.93;8.63;;;;;;;;;;5092081;28;20079;-82
2021/09/27 19:55:53;;;;;;;16.77;11.48;;;;;;;;;;5093462;28;20466;-85
2021/09/27 19:58:19;;;;;;;11.35;7.13;;;;;;;;;;5092681;28;20523;-81
2021/09/27 20:00:48;;;;;;;11.40;7.80;;;;;;;;;;5093908;28;20043;-81
2021/09/27 20:03:15;;;;;;;15.27;7.13;;;;;;;;;;5093238;28;20028;-83
2021/09/27 20:05:42;;;;;;;18.88;8.02;;;;;;;;;;5094048;28;20081;-81
2021/09/27 20:08:08;;;;;;;12.80;8.32;;;;;;;;;;5091880;28;20024;-81
2021/09/27 20:10:35;;;;;;;13.02;7.72;;;;;;;;;;5093532;28;20028;-82
2021/09/27 20:13:00;;;;;;;12.88;8.25;;;;;;;;;;5093576;28;20501;-83
2021/09/27 20:15:31;;;;;;;14.02;8.27;;;;;;;;;;5093398;28;20083;-82
2021/09/27 20:17:58;;;;;;;15.30;8.55;;;;;;;;;;5092858;28;20032;-83
2021/09/27 20:20:24;;;;;;;13.93;8.32;;;;;;;;;;5092102;28;20082;-80
2021/09/27 20:22:50;;;;;;;18.75;11.20;;;;;;;;;;5091526;28;20038;-83
2021/09/27 20:25:16;;;;;;;18.65;10.98;;;;;;;;;;5091478;28;20031;-82
2021/09/27 20:27:42;;;;;;;14.27;8.57;;;;;;;;;;5092941;28;20032;-80
2021/09/27 20:30:11;;;;;;;18.13;8.13;;;;;;;;;;5092549;28;20054;-80
2021/09/27 20:32:36;;;;;;;16.20;8.73;;;;;;;;;;5092812;28;20040;-83
2021/09/27 20:35:02;;;;;;;15.55;8.75;;;;;;;;;;5092177;28;20097;-83
2021/09/27 20:37:28;;;;;;;17.10;9.45;;;;;;;;;;5090576;28;20123;-82
2021/09/27 20:39:54;;;;;;;20.42;9.98;;;;;;;;;;5090672;28;20127;-82
2021/09/27 20:42:20;;;;;;;23.23;9.27;;;;;;;;;;5090832;28;20084;-83
2021/09/27 20:44:46;;;;;;;16.05;8.68;;;;;;;;;;5092068;28;20040;-83
2021/09/27 20:47:11;;;;;;;18.63;8.65;;;;;;;;;;5091317;28;20036;-84
2021/09/27 20:49:37;;;;;;;13.57;10.45;;;;;;;;;;5079103;28;20039;-83
2021/09/27 20:52:02;;;;;;;14.80;8.65;;;;;;;;;;5071737;28;20041;-81
2021/09/27 20:54:28;;;;;;;15.40;10.07;;;;;;;;;;5072115;28;20087;-83
2021/09/27 20:56:53;;;;;;;12.93;7.95;;;;;;;;;;5072174;28;20589;-84
2021/09/27 20:59:19;;;;;;;19.85;8.57;;;;;;;;;;5071491;28;20029;-83
2021/09/27 21:01:44;;;;;;;16.67;10.68;;;;;;;;;;5071283;28;20033;-79
2021/09/27 21:04:09;;;;;;;15.00;8.73;;;;;;;;;;5071954;28;20401;-81
2021/09/27 21:06:35;;;;;;;14.90;8.25;;;;;;;;;;5071521;28;20032;-82
2021/09/27 21:09:00;;;;;;;14.98;8.48;;;;;;;;;;5072149;28;20508;-82
2021/09/27 21:11:26;;;;;;;17.23;8.10;;;;;;;;;;5072090;28;20501;-81
2021/09/27 21:13:52;;;;;;;18.63;8.60;;;;;;;;;;5071797;28;20071;-80
2021/09/27 21:16:17;;;;;;;17.33;8.65;;;;;;;;;;5071769;28;20040;-81
2021/09/27 21:18:43;;;;;;;13.77;8.18;;;;;;;;;;5071728;28;20036;-79
2021/09/27 21:21:09;;;;;;;14.02;8.18;;;;;;;;;;5070215;28;20029;-78
2021/09/27 21:23:35;;;;;;;14.85;8.18;;;;;;;;;;5071495;28;20397;-81
2021/09/27 21:26:01;;;;;;;17.08;8.90;;;;;;;;;;5070707;28;20075;-81
2021/09/27 21:28:27;;;;;;;13.43;8.10;;;;;;;;;;5071989;28;20060;-80
2021/09/27 21:30:52;;;;;;;23.70;8.40;;;;;;;;;;5070652;28;20039;-80
2021/09/27 21:33:19;;;;;;;17.27;9.18;;;;;;;;;;5087813;28;20036;-79
2021/09/27 21:35:45;;;;;;;16.85;8.48;;;;;;;;;;5070131;28;20060;-80
2021/09/27 21:38:11;;;;;;;16.95;9.27;;;;;;;;;;5070102;28;20090;-83
2021/09/27 21:40:37;;;;;;;15.27;8.82;;;;;;;;;;5071487;28;20050;-82
2021/09/27 21:43:07;;;;;;;14.52;8.90;;;;;;;;;;5069676;28;20547;-82
2021/09/27 21:45:33;;;;;;;16.02;9.57;;;;;;;;;;5070144;28;20043;-81
2021/09/27 21:48:00;;;;;;;17.27;9.05;;;;;;;;;;5070607;28;20028;-81
2021/09/27 21:50:27;;;;;;;18.27;10.43;;;;;;;;;;5090812;28;20036;-80
2021/09/27 21:52:53;;;;;;;16.77;10.50;;;;;;;;;;5090020;28;20056;-80
2021/09/27 21:55:19;;;;;;;16.48;9.98;;;;;;;;;;5089871;28;20032;-81
2021/09/27 21:57:45;;;;;;;17.42;9.90;;;;;;;;;;5090727;28;20067;-80
2021/09/27 22:00:32;;;;;;;18.23;10.13;;;;;;;;;;5088711;28;20061;-80
2021/09/27 22:02:57;;;;;;;17.85;10.70;;;;;;;;;;5090924;28;20086;-80
2021/09/27 22:05:25;;;;;;;20.20;11.47;;;;;;;;;;5090746;28;20060;-81
2021/09/27 22:07:55;;;;;;;21.60;10.43;;;;;;;;;;5088528;28;20097;-80
2021/09/27 22:10:23;;;;;;;16.27;9.45;;;;;;;;;;5091065;28;20833;-80
2021/09/27 22:12:49;;;;;;;20.58;10.15;;;;;;;;;;5089151;28;20466;-81
2021/09/27 22:15:15;;;;;;;14.75;9.00;;;;;;;;;;5090301;28;20361;-83
2021/09/27 22:17:40;;;;;;;16.17;8.98;;;;;;;;;;5090733;28;20039;-82
2021/09/27 22:20:06;;;;;;;16.95;9.57;;;;;;;;;;5091202;28;20134;-80
2021/09/27 22:22:32;;;;;;;15.75;12.00;;;;;;;;;;5090084;28;20192;-80
2021/09/27 22:24:57;;;;;;;15.75;9.35;;;;;;;;;;5090744;28;20050;-78
2021/09/27 22:27:22;;;;;;;19.02;9.50;;;;;;;;;;5089799;28;20043;-80
2021/09/27 22:29:48;;;;;;;16.20;9.52;;;;;;;;;;5089806;28;20110;-80
2021/09/27 22:32:13;;;;;;;18.38;10.43;;;;;;;;;;5090466;28;20151;-79
2021/09/27 22:34:39;;;;;;;17.35;10.52;;;;;;;;;;5090862;28;20037;-81
2021/09/27 22:37:08;;;;;;;20.60;11.68;;;;;;;;;;5090373;28;20028;-81
2021/09/27 22:39:34;;;;;;;19.73;10.82;;;;;;;;;;5091620;28;20054;-80
2021/09/27 22:42:00;;;;;;;20.42;12.68;;;;;;;;;;5090867;28;20115;-81
2021/09/27 22:44:25;;;;;;;30.27;17.33;;;;;;;;;;5091181;28;20636;-79
2021/09/27 22:46:51;;;;;;;21.40;12.57;;;;;;;;;;5090938;28;20040;-79
2021/09/27 22:49:16;;;;;;;21.92;15.98;;;;;;;;;;5079832;28;20032;-80
2021/09/27 22:51:42;;;;;;;20.42;11.13;;;;;;;;;;5069899;28;20078;-80
2021/09/27 22:54:10;;;;;;;21.77;10.65;;;;;;;;;;5070313;28;20144;-79
2021/09/27 22:56:36;;;;;;;20.35;12.18;;;;;;;;;;5070892;28;20033;-80
2021/09/27 22:59:01;;;;;;;20.50;11.38;;;;;;;;;;5070710;28;20036;-81
2021/09/27 23:01:26;;;;;;;22.58;12.15;;;;;;;;;;5072695;28;20074;-79
2021/09/27 23:03:52;;;;;;;21.63;12.10;;;;;;;;;;5073638;28;20060;-80
2021/09/27 23:06:17;;;;;;;19.98;11.40;;;;;;;;;;5074013;28;20064;-80
2021/09/27 23:08:43;;;;;;;20.33;11.98;;;;;;;;;;5073043;28;20037;-80
2021/09/27 23:11:08;;;;;;;22.40;11.48;;;;;;;;;;5074572;28;20039;-80
2021/09/27 23:13:34;;;;;;;24.35;14.52;;;;;;;;;;5073780;28;20051;-80
2021/09/27 23:15:59;;;;;;;20.55;11.55;;;;;;;;;;5074494;28;20029;-79
2021/09/27 23:18:25;;;;;;;25.17;13.27;;;;;;;;;;5074039;28;20039;-81
2021/09/27 23:20:50;;;;;;;25.70;12.05;;;;;;;;;;5074035;28;20064;-80
2021/09/27 23:23:16;;;;;;;23.33;13.07;;;;;;;;;;5072376;28;20554;-81
2021/09/27 23:25:42;;;;;;;25.10;12.15;;;;;;;;;;5074974;28;20043;-79
2021/09/27 23:28:07;;;;;;;20.42;12.57;;;;;;;;;;5074346;28;20041;-80
2021/09/27 23:30:33;;;;;;;21.63;11.63;;;;;;;;;;5077037;28;20512;-81
2021/09/27 23:32:59;;;;;;;19.63;10.48;;;;;;;;;;5076790;28;20033;-80
2021/09/27 23:35:25;;;;;;;20.63;13.57;;;;;;;;;;5073646;28;20036;-80
2021/09/27 23:37:50;;;;;;;20.23;10.20;;;;;;;;;;5073744;28;20036;-80
2021/09/27 23:40:16;;;;;;;19.77;9.18;;;;;;;;;;5088887;28;20035;-80
2021/09/27 23:42:41;;;;;;;42.72;9.90;;;;;;;;;;5072813;28;20047;-80
2021/09/27 23:45:07;;;;;;;29.70;8.68;;;;;;;;;;5073039;28;20407;-81
2021/09/27 23:47:32;;;;;;;21.33;8.90;;;;;;;;;;5072821;28;20033;-81
2021/09/27 23:49:58;;;;;;;31.05;12.23;;;;;;;;;;5088869;28;20032;-83
2021/09/27 23:52:23;;;;;;;24.90;9.57;;;;;;;;;;5093496;28;20396;-80
2021/09/27 23:54:49;;;;;;;29.00;8.90;;;;;;;;;;5092821;28;20056;-80
2021/09/27 23:57:14;;;;;;;23.60;9.25;;;;;;;;;;5091133;28;20028;-80
2021/09/27 23:59:39;;;;;;;18.17;9.07;;;;;;;;;;5092232;28;20084;-79
